sensor_id;sensor_type;location;lat;lon;timestamp;pressure;altitude;pressure_sealevel;temperature;humidity
5522;BME280;2783;48.730;8.006;2022-12-07T00:01:27;100312.09;;;6.07;100.00
5522;BME280;2783;48.730;8.006;2022-12-07T00:03:54;100313.00;;;6.04;100.00
5522;BME280;2783;48.730;8.006;2022-12-07T00:06:29;100315.66;;;6.00;100.00
5522;BME280;2783;48.730;8.006;2022-12-07T00:08:54;100304.28;;;5.98;100.00
5522;BME280;2783;48.730;8.006;2022-12-07T00:11:21;100302.59;;;5.89;100.00
5522;BME280;2783;48.730;8.006;2022-12-07T00:13:51;100305.19;;;5.91;100.00
5522;BME280;2783;48.730;8.006;2022-12-07T00:16:19;100315.78;;;5.88;100.00
5522;BME280;2783;48.730;8.006;2022-12-07T00:18:45;100312.31;;;5.83;100.00
5522;BME280;2783;48.730;8.006;2022-12-07T00:21:13;100307.94;;;5.76;100.00
5522;BME280;2783;48.730;8.006;2022-12-07T00:23:40;100309.75;;;5.69;100.00
5522;BME280;2783;48.730;8.006;2022-12-07T00:26:12;100308.06;;;5.62;100.00
5522;BME280;2783;48.730;8.006;2022-12-07T00:28:38;100305.47;;;5.58;100.00
5522;BME280;2783;48.730;8.006;2022-12-07T00:31:09;100309.00;;;5.52;100.00
5522;BME280;2783;48.730;8.006;2022-12-07T00:33:35;100311.72;;;5.45;100.00
5522;BME280;2783;48.730;8.006;2022-12-07T00:36:03;100306.44;;;5.46;100.00
5522;BME280;2783;48.730;8.006;2022-12-07T00:38:31;100298.53;;;5.45;100.00
5522;BME280;2783;48.730;8.006;2022-12-07T00:40:58;100302.97;;;5.38;100.00
5522;BME280;2783;48.730;8.006;2022-12-07T00:43:24;100303.00;;;5.36;100.00
5522;BME280;2783;48.730;8.006;2022-12-07T00:45:49;100299.47;;;5.36;100.00
5522;BME280;2783;48.730;8.006;2022-12-07T00:48:15;100298.56;;;5.37;100.00
5522;BME280;2783;48.730;8.006;2022-12-07T00:50:40;100287.22;;;5.32;100.00
5522;BME280;2783;48.730;8.006;2022-12-07T00:53:06;100302.94;;;5.43;100.00
5522;BME280;2783;48.730;8.006;2022-12-07T00:55:35;100303.81;;;5.45;100.00
5522;BME280;2783;48.730;8.006;2022-12-07T00:58:00;100292.31;;;5.49;100.00
5522;BME280;2783;48.730;8.006;2022-12-07T01:00:26;100301.97;;;5.53;100.00
5522;BME280;2783;48.730;8.006;2022-12-07T01:02:51;100301.06;;;5.54;100.00
5522;BME280;2783;48.730;8.006;2022-12-07T01:05:17;100275.66;;;5.47;100.00
5522;BME280;2783;48.730;8.006;2022-12-07T01:07:42;100304.53;;;5.65;100.00
5522;BME280;2783;48.730;8.006;2022-12-07T01:10:08;100301.84;;;5.68;100.00
5522;BME280;2783;48.730;8.006;2022-12-07T01:12:33;100302.72;;;5.71;100.00
5522;BME280;2783;48.730;8.006;2022-12-07T01:14:59;100298.28;;;5.72;100.00
5522;BME280;2783;48.730;8.006;2022-12-07T01:17:24;100297.41;;;5.74;100.00
5522;BME280;2783;48.730;8.006;2022-12-07T01:19:50;100298.28;;;5.75;100.00
5522;BME280;2783;48.730;8.006;2022-12-07T01:22:15;100299.13;;;5.75;100.00
5522;BME280;2783;48.730;8.006;2022-12-07T01:24:41;100301.75;;;5.77;100.00
5522;BME280;2783;48.730;8.006;2022-12-07T01:27:06;100297.34;;;5.80;100.00
5522;BME280;2783;48.730;8.006;2022-12-07T01:29:31;100307.00;;;5.86;100.00
5522;BME280;2783;48.730;8.006;2022-12-07T01:31:57;100306.09;;;5.88;100.00
5522;BME280;2783;48.730;8.006;2022-12-07T01:34:22;100306.09;;;5.87;100.00
5522;BME280;2783;48.730;8.006;2022-12-07T01:36:48;100307.84;;;5.89;100.00
5522;BME280;2783;48.730;8.006;2022-12-07T01:39:13;100310.50;;;5.89;100.00
5522;BME280;2783;48.730;8.006;2022-12-07T01:41:40;100310.47;;;5.91;100.00
5522;BME280;2783;48.730;8.006;2022-12-07T01:46:48;100309.56;;;5.93;100.00
5522;BME280;2783;48.730;8.006;2022-12-07T01:54:35;100324.53;;;5.96;100.00
5522;BME280;2783;48.730;8.006;2022-12-07T01:57:03;100320.13;;;5.96;100.00
5522;BME280;2783;48.730;8.006;2022-12-07T01:59:29;100313.97;;;5.96;100.00
5522;BME280;2783;48.730;8.006;2022-12-07T02:01:55;100313.91;;;6.00;100.00
5522;BME280;2783;48.730;8.006;2022-12-07T02:04:21;100318.31;;;5.98;100.00
5522;BME280;2783;48.730;8.006;2022-12-07T02:06:47;100310.44;;;5.94;100.00
5522;BME280;2783;48.730;8.006;2022-12-07T02:09:13;100323.63;;;5.95;100.00
5522;BME280;2783;48.730;8.006;2022-12-07T02:11:39;100316.63;;;5.94;100.00
5522;BME280;2783;48.730;8.006;2022-12-07T02:14:05;100317.50;;;5.92;100.00
5522;BME280;2783;48.730;8.006;2022-12-07T02:17:02;100320.13;;;5.92;100.00
5522;BME280;2783;48.730;8.006;2022-12-07T02:20:31;100314.81;;;5.95;100.00
5522;BME280;2783;48.730;8.006;2022-12-07T02:25:54;100299.94;;;5.91;100.00
5522;BME280;2783;48.730;8.006;2022-12-07T02:28:55;100298.16;;;5.93;100.00
5522;BME280;2783;48.730;8.006;2022-12-07T02:31:19;100299.94;;;5.91;100.00
5522;BME280;2783;48.730;8.006;2022-12-07T02:33:54;100292.88;;;5.90;100.00
5522;BME280;2783;48.730;8.006;2022-12-07T02:36:28;100298.16;;;5.93;100.00
5522;BME280;2783;48.730;8.006;2022-12-07T02:39:02;100297.22;;;5.95;100.00
5522;BME280;2783;48.730;8.006;2022-12-07T02:41:43;100297.25;;;5.94;100.00
5522;BME280;2783;48.730;8.006;2022-12-07T02:44:13;100303.44;;;5.91;100.00
5522;BME280;2783;48.730;8.006;2022-12-07T02:46:46;100297.34;;;5.85;100.00
5522;BME280;2783;48.730;8.006;2022-12-07T02:49:15;100295.63;;;5.76;100.00
5522;BME280;2783;48.730;8.006;2022-12-07T02:51:43;100290.38;;;5.72;100.00
5522;BME280;2783;48.730;8.006;2022-12-07T02:54:19;100296.63;;;5.65;100.00
5522;BME280;2783;48.730;8.006;2022-12-07T02:56:48;100301.06;;;5.58;100.00
5522;BME280;2783;48.730;8.006;2022-12-07T03:07:30;100282.63;;;5.52;100.00
5522;BME280;2783;48.730;8.006;2022-12-07T03:15:57;100287.84;;;5.60;100.00
5522;BME280;2783;48.730;8.006;2022-12-07T03:18:30;100279.06;;;5.58;100.00
5522;BME280;2783;48.730;8.006;2022-12-07T03:21:02;100270.34;;;5.50;100.00
5522;BME280;2783;48.730;8.006;2022-12-07T03:23:32;100286.06;;;5.60;100.00
5522;BME280;2783;48.730;8.006;2022-12-07T03:26:00;100282.59;;;5.60;100.00
5522;BME280;2783;48.730;8.006;2022-12-07T03:28:31;100281.66;;;5.62;100.00
5522;BME280;2783;48.730;8.006;2022-12-07T03:31:33;100278.16;;;5.63;100.00
5522;BME280;2783;48.730;8.006;2022-12-07T03:34:08;100273.72;;;5.67;100.00
5522;BME280;2783;48.730;8.006;2022-12-07T03:36:44;100284.25;;;5.70;100.00
5522;BME280;2783;48.730;8.006;2022-12-07T03:39:39;100288.59;;;5.74;100.00
5522;BME280;2783;48.730;8.006;2022-12-07T03:42:08;100294.75;;;5.76;100.00
5522;BME280;2783;48.730;8.006;2022-12-07T03:44:36;100292.13;;;5.74;100.00
5522;BME280;2783;48.730;8.006;2022-12-07T03:47:06;100287.72;;;5.75;100.00
5522;BME280;2783;48.730;8.006;2022-12-07T03:49:44;100276.31;;;5.73;100.00
5522;BME280;2783;48.730;8.006;2022-12-07T03:52:18;100269.25;;;5.72;100.00
5522;BME280;2783;48.730;8.006;2022-12-07T03:54:59;100272.78;;;5.72;100.00
5522;BME280;2783;48.730;8.006;2022-12-07T03:57:27;100275.38;;;5.77;100.00
5522;BME280;2783;48.730;8.006;2022-12-07T03:59:55;100267.56;;;5.68;100.00
5522;BME280;2783;48.730;8.006;2022-12-07T04:02:23;100266.63;;;5.72;100.00
5522;BME280;2783;48.730;8.006;2022-12-07T04:04:50;100274.53;;;5.72;100.00
5522;BME280;2783;48.730;8.006;2022-12-07T04:07:15;100290.38;;;5.73;100.00
5522;BME280;2783;48.730;8.006;2022-12-07T04:09:41;100286.91;;;5.70;100.00
5522;BME280;2783;48.730;8.006;2022-12-07T04:12:07;100278.13;;;5.66;100.00
5522;BME280;2783;48.730;8.006;2022-12-07T04:14:32;100276.34;;;5.65;100.00
5522;BME280;2783;48.730;8.006;2022-12-07T04:16:58;100275.47;;;5.68;100.00
5522;BME280;2783;48.730;8.006;2022-12-07T04:19:29;100274.59;;;5.67;100.00
5522;BME280;2783;48.730;8.006;2022-12-07T04:21:56;100270.19;;;5.68;100.00
5522;BME280;2783;48.730;8.006;2022-12-07T04:24:22;100273.69;;;5.70;100.00
5522;BME280;2783;48.730;8.006;2022-12-07T04:26:47;100256.13;;;5.66;100.00
5522;BME280;2783;48.730;8.006;2022-12-07T04:29:14;100268.47;;;5.64;100.00
5522;BME280;2783;48.730;8.006;2022-12-07T04:31:39;100256.16;;;5.63;100.00
5522;BME280;2783;48.730;8.006;2022-12-07T04:34:05;100253.50;;;5.64;100.00
5522;BME280;2783;48.730;8.006;2022-12-07T04:36:31;100255.25;;;5.65;100.00
5522;BME280;2783;48.730;8.006;2022-12-07T04:38:57;100251.78;;;5.63;100.00
5522;BME280;2783;48.730;8.006;2022-12-07T04:41:23;100252.69;;;5.58;100.00
5522;BME280;2783;48.730;8.006;2022-12-07T04:43:54;100244.81;;;5.53;100.00
5522;BME280;2783;48.730;8.006;2022-12-07T04:46:21;100260.56;;;5.61;100.00
5522;BME280;2783;48.730;8.006;2022-12-07T04:48:47;100264.97;;;5.62;100.00
5522;BME280;2783;48.730;8.006;2022-12-07T04:51:15;100264.97;;;5.63;100.00
5522;BME280;2783;48.730;8.006;2022-12-07T04:53:43;100271.13;;;5.61;100.00
5522;BME280;2783;48.730;8.006;2022-12-07T04:56:08;100270.25;;;5.59;100.00
5522;BME280;2783;48.730;8.006;2022-12-07T04:58:34;100264.97;;;5.59;100.00
5522;BME280;2783;48.730;8.006;2022-12-07T05:00:59;100266.75;;;5.60;100.00
5522;BME280;2783;48.730;8.006;2022-12-07T05:03:25;100268.50;;;5.59;100.00
5522;BME280;2783;48.730;8.006;2022-12-07T05:05:50;100271.16;;;5.59;100.00
5522;BME280;2783;48.730;8.006;2022-12-07T05:08:15;100258.94;;;5.48;100.00
5522;BME280;2783;48.730;8.006;2022-12-07T05:10:41;100278.19;;;5.57;100.00
5522;BME280;2783;48.730;8.006;2022-12-07T05:13:06;100273.75;;;5.61;100.00
5522;BME280;2783;48.730;8.006;2022-12-07T05:15:32;100279.09;;;5.56;100.00
5522;BME280;2783;48.730;8.006;2022-12-07T05:17:57;100272.09;;;5.51;100.00
5522;BME280;2783;48.730;8.006;2022-12-07T05:20:22;100268.59;;;5.49;100.00
5522;BME280;2783;48.730;8.006;2022-12-07T05:22:48;100253.66;;;5.46;100.00
5522;BME280;2783;48.730;8.006;2022-12-07T05:25:13;100272.06;;;5.54;100.00
5522;BME280;2783;48.730;8.006;2022-12-07T05:27:39;100277.34;;;5.55;100.00
5522;BME280;2783;48.730;8.006;2022-12-07T05:30:05;100278.19;;;5.56;100.00
5522;BME280;2783;48.730;8.006;2022-12-07T05:32:30;100270.28;;;5.56;100.00
5522;BME280;2783;48.730;8.006;2022-12-07T05:34:56;100271.16;;;5.58;100.00
5522;BME280;2783;48.730;8.006;2022-12-07T05:37:21;100270.25;;;5.59;100.00
5522;BME280;2783;48.730;8.006;2022-12-07T05:39:47;100268.53;;;5.58;100.00
5522;BME280;2783;48.730;8.006;2022-12-07T05:42:12;100284.41;;;5.52;100.00
5522;BME280;2783;48.730;8.006;2022-12-07T05:44:42;100285.31;;;5.48;100.00
5522;BME280;2783;48.730;8.006;2022-12-07T05:47:07;100284.44;;;5.46;100.00
5522;BME280;2783;48.730;8.006;2022-12-07T05:49:33;100269.53;;;5.42;100.00
5522;BME280;2783;48.730;8.006;2022-12-07T05:51:59;100275.69;;;5.40;100.00
5522;BME280;2783;48.730;8.006;2022-12-07T05:54:24;100279.22;;;5.39;100.00
5522;BME280;2783;48.730;8.006;2022-12-07T05:56:50;100282.75;;;5.38;100.00
5522;BME280;2783;48.730;8.006;2022-12-07T05:59:16;100274.81;;;5.42;100.00
5522;BME280;2783;48.730;8.006;2022-12-07T06:01:50;100283.59;;;5.44;100.00
5522;BME280;2783;48.730;8.006;2022-12-07T06:04:16;100278.31;;;5.40;100.00
5522;BME280;2783;48.730;8.006;2022-12-07T06:06:42;100274.81;;;5.43;100.00
5522;BME280;2783;48.730;8.006;2022-12-07T06:09:07;100275.69;;;5.40;100.00
5522;BME280;2783;48.730;8.006;2022-12-07T06:11:33;100282.75;;;5.38;100.00
5522;BME280;2783;48.730;8.006;2022-12-07T06:14:17;100287.16;;;5.38;100.00
5522;BME280;2783;48.730;8.006;2022-12-07T06:16:42;100285.38;;;5.42;100.00
5522;BME280;2783;48.730;8.006;2022-12-07T06:19:08;100273.97;;;5.38;100.00
5522;BME280;2783;48.730;8.006;2022-12-07T06:21:33;100283.59;;;5.45;100.00
5522;BME280;2783;48.730;8.006;2022-12-07T06:23:59;100282.72;;;5.42;100.00
5522;BME280;2783;48.730;8.006;2022-12-07T06:26:24;100288.03;;;5.38;100.00
5522;BME280;2783;48.730;8.006;2022-12-07T06:28:50;100285.41;;;5.38;100.00
5522;BME280;2783;48.730;8.006;2022-12-07T06:31:15;100283.63;;;5.37;100.00
5522;BME280;2783;48.730;8.006;2022-12-07T06:33:41;100288.03;;;5.35;100.00
5522;BME280;2783;48.730;8.006;2022-12-07T06:36:07;100281.03;;;5.34;100.00
5522;BME280;2783;48.730;8.006;2022-12-07T06:38:33;100288.03;;;5.40;100.00
5522;BME280;2783;48.730;8.006;2022-12-07T06:40:58;100283.59;;;5.40;100.00
5522;BME280;2783;48.730;8.006;2022-12-07T06:43:24;100290.69;;;5.38;100.00
5522;BME280;2783;48.730;8.006;2022-12-07T06:45:49;100289.75;;;5.43;100.00
5522;BME280;2783;48.730;8.006;2022-12-07T06:48:16;100291.50;;;5.44;100.00
5522;BME280;2783;48.730;8.006;2022-12-07T06:50:44;100298.47;;;5.51;100.00
5522;BME280;2783;48.730;8.006;2022-12-07T06:53:09;100298.50;;;5.48;100.00
5522;BME280;2783;48.730;8.006;2022-12-07T06:55:35;100296.72;;;5.50;100.00
5522;BME280;2783;48.730;8.006;2022-12-07T06:58:00;100300.25;;;5.50;100.00
5522;BME280;2783;48.730;8.006;2022-12-07T07:00:26;100301.13;;;5.48;100.00
5522;BME280;2783;48.730;8.006;2022-12-07T07:02:52;100294.09;;;5.48;100.00
5522;BME280;2783;48.730;8.006;2022-12-07T07:05:17;100294.97;;;5.52;100.00
5522;BME280;2783;48.730;8.006;2022-12-07T07:07:43;100288.84;;;5.42;100.00
5522;BME280;2783;48.730;8.006;2022-12-07T07:10:08;100291.50;;;5.44;100.00
5522;BME280;2783;48.730;8.006;2022-12-07T07:12:34;100295.03;;;5.43;100.00
5522;BME280;2783;48.730;8.006;2022-12-07T07:14:59;100293.31;;;5.38;100.00
5522;BME280;2783;48.730;8.006;2022-12-07T07:17:25;100295.03;;;5.43;100.00
5522;BME280;2783;48.730;8.006;2022-12-07T07:19:50;100296.72;;;5.50;100.00
5522;BME280;2783;48.730;8.006;2022-12-07T07:22:16;100298.44;;;5.54;100.00
5522;BME280;2783;48.730;8.006;2022-12-07T07:24:41;100301.91;;;5.59;100.00
5522;BME280;2783;48.730;8.006;2022-12-07T07:27:06;100301.03;;;5.63;100.00
5522;BME280;2783;48.730;8.006;2022-12-07T07:29:32;100292.22;;;5.62;100.00
5522;BME280;2783;48.730;8.006;2022-12-07T07:31:57;100307.09;;;5.71;100.00
5522;BME280;2783;48.730;8.006;2022-12-07T07:34:23;100300.09;;;5.70;100.00
5522;BME280;2783;48.730;8.006;2022-12-07T07:36:48;100302.75;;;5.68;100.00
5522;BME280;2783;48.730;8.006;2022-12-07T07:39:14;100287.84;;;5.60;100.00
5522;BME280;2783;48.730;8.006;2022-12-07T07:41:39;100311.50;;;5.73;100.00
5522;BME280;2783;48.730;8.006;2022-12-07T07:44:04;100295.66;;;5.72;100.00
5522;BME280;2783;48.730;8.006;2022-12-07T07:46:30;100306.22;;;5.73;100.00
5522;BME280;2783;48.730;8.006;2022-12-07T07:48:56;100279.84;;;5.69;100.00
5522;BME280;2783;48.730;8.006;2022-12-07T07:51:21;100301.75;;;5.80;100.00
5522;BME280;2783;48.730;8.006;2022-12-07T07:53:47;100311.34;;;5.90;100.00
5522;BME280;2783;48.730;8.006;2022-12-07T07:56:12;100305.13;;;5.97;100.00
5522;BME280;2783;48.730;8.006;2022-12-07T07:58:38;100312.16;;;6.01;100.00
5522;BME280;2783;48.730;8.006;2022-12-07T08:01:07;100307.75;;;6.03;100.00
5522;BME280;2783;48.730;8.006;2022-12-07T08:03:33;100310.34;;;6.06;100.00
5522;BME280;2783;48.730;8.006;2022-12-07T08:05:58;100309.47;;;6.05;100.00
5522;BME280;2783;48.730;8.006;2022-12-07T08:08:24;100314.69;;;6.08;100.00
5522;BME280;2783;48.730;8.006;2022-12-07T08:10:49;100307.69;;;6.06;100.00
5522;BME280;2783;48.730;8.006;2022-12-07T08:13:16;100303.31;;;6.02;100.00
5522;BME280;2783;48.730;8.006;2022-12-07T08:15:46;100315.59;;;6.07;100.00
5522;BME280;2783;48.730;8.006;2022-12-07T08:18:13;100313.88;;;6.03;100.00
5522;BME280;2783;48.730;8.006;2022-12-07T08:20:40;100291.06;;;5.98;100.00
5522;BME280;2783;48.730;8.006;2022-12-07T08:23:06;100311.16;;;6.12;100.00
5522;BME280;2783;48.730;8.006;2022-12-07T08:25:33;100294.53;;;6.03;100.00
5522;BME280;2783;48.730;8.006;2022-12-07T08:27:58;100322.56;;;6.17;100.00
5522;BME280;2783;48.730;8.006;2022-12-07T08:30:25;100320.75;;;6.18;100.00
5522;BME280;2783;48.730;8.006;2022-12-07T08:32:51;100311.09;;;6.18;100.00
5522;BME280;2783;48.730;8.006;2022-12-07T08:35:16;100318.13;;;6.18;100.00
5522;BME280;2783;48.730;8.006;2022-12-07T08:37:42;100313.78;;;6.14;100.00
5522;BME280;2783;48.730;8.006;2022-12-07T08:40:09;100316.41;;;6.14;100.00
5522;BME280;2783;48.730;8.006;2022-12-07T08:42:35;100317.28;;;6.16;100.00
5522;BME280;2783;48.730;8.006;2022-12-07T08:45:11;100317.25;;;6.19;100.00
5522;BME280;2783;48.730;8.006;2022-12-07T08:47:40;100323.34;;;6.25;100.00
5522;BME280;2783;48.730;8.006;2022-12-07T08:50:07;100318.88;;;6.32;100.00
5522;BME280;2783;48.730;8.006;2022-12-07T08:52:35;100310.16;;;6.24;100.00
5522;BME280;2783;48.730;8.006;2022-12-07T08:55:02;100318.91;;;6.29;100.00
5522;BME280;2783;48.730;8.006;2022-12-07T08:57:29;100318.84;;;6.33;100.00
5522;BME280;2783;48.730;8.006;2022-12-07T08:59:55;100316.13;;;6.39;99.18
5522;BME280;2783;48.730;8.006;2022-12-07T09:02:20;100314.38;;;6.40;98.58
5522;BME280;2783;48.730;8.006;2022-12-07T09:04:46;100301.16;;;6.40;98.38
5522;BME280;2783;48.730;8.006;2022-12-07T09:07:12;100302.00;;;6.45;97.46
5522;BME280;2783;48.730;8.006;2022-12-07T09:09:37;100305.47;;;6.48;96.05
5522;BME280;2783;48.730;8.006;2022-12-07T09:12:03;100308.03;;;6.54;96.35
5522;BME280;2783;48.730;8.006;2022-12-07T09:14:28;100310.53;;;6.66;96.76
5522;BME280;2783;48.730;8.006;2022-12-07T09:16:54;100309.59;;;6.72;96.56
5522;BME280;2783;48.730;8.006;2022-12-07T09:19:19;100312.13;;;6.80;97.13
5522;BME280;2783;48.730;8.006;2022-12-07T09:21:44;100319.06;;;6.90;97.19
5522;BME280;2783;48.730;8.006;2022-12-07T09:24:12;100318.19;;;6.88;96.59
5522;BME280;2783;48.730;8.006;2022-12-07T09:26:37;100325.16;;;6.95;97.13
5522;BME280;2783;48.730;8.006;2022-12-07T09:29:04;100315.59;;;6.85;94.04
5522;BME280;2783;48.730;8.006;2022-12-07T09:31:30;100323.47;;;6.88;93.88
5522;BME280;2783;48.730;8.006;2022-12-07T09:33:59;100323.41;;;6.95;93.61
5522;BME280;2783;48.730;8.006;2022-12-07T09:36:26;100316.31;;;6.96;94.26
5522;BME280;2783;48.730;8.006;2022-12-07T09:38:52;100314.47;;;7.02;95.32
5522;BME280;2783;48.730;8.006;2022-12-07T09:41:18;100311.06;;;6.94;94.74
5522;BME280;2783;48.730;8.006;2022-12-07T09:43:44;100313.69;;;6.96;94.35
5522;BME280;2783;48.730;8.006;2022-12-07T09:46:15;100311.91;;;6.96;94.70
5522;BME280;2783;48.730;8.006;2022-12-07T09:48:43;100307.53;;;6.95;95.45
5522;BME280;2783;48.730;8.006;2022-12-07T09:51:19;100312.69;;;7.04;95.48
5522;BME280;2783;48.730;8.006;2022-12-07T09:53:45;100307.38;;;7.06;95.86
5522;BME280;2783;48.730;8.006;2022-12-07T09:56:13;100305.56;;;7.09;96.09
5522;BME280;2783;48.730;8.006;2022-12-07T09:58:39;100300.28;;;7.09;96.09
5522;BME280;2783;48.730;8.006;2022-12-07T10:03:34;100304.53;;;7.19;96.03
5522;BME280;2783;48.730;8.006;2022-12-07T10:06:01;100298.28;;;7.23;96.28
5522;BME280;2783;48.730;8.006;2022-12-07T10:08:26;100279.16;;;7.06;95.20
5522;BME280;2783;48.730;8.006;2022-12-07T10:10:54;100296.59;;;7.19;95.71
5522;BME280;2783;48.730;8.006;2022-12-07T10:13:38;100295.75;;;7.17;95.56
5522;BME280;2783;48.730;8.006;2022-12-07T10:16:06;100281.81;;;7.06;94.78
5522;BME280;2783;48.730;8.006;2022-12-07T10:18:41;100287.00;;;7.12;94.79
5522;BME280;2783;48.730;8.006;2022-12-07T10:21:18;100288.66;;;7.19;94.80
5522;BME280;2783;48.730;8.006;2022-12-07T10:24:01;100269.28;;;7.17;95.19
5522;BME280;2783;48.730;8.006;2022-12-07T10:26:33;100292.97;;;7.26;95.21
5522;BME280;2783;48.730;8.006;2022-12-07T10:29:14;100285.00;;;7.29;96.03
5522;BME280;2783;48.730;8.006;2022-12-07T10:31:41;100287.59;;;7.32;96.30
5522;BME280;2783;48.730;8.006;2022-12-07T10:34:25;100276.06;;;7.35;96.05
5522;BME280;2783;48.730;8.006;2022-12-07T10:36:53;100268.31;;;7.24;95.65
5522;BME280;2783;48.730;8.006;2022-12-07T10:39:21;100280.69;;;7.22;94.97
5522;BME280;2783;48.730;8.006;2022-12-07T10:44:29;100276.31;;;7.20;95.10
5522;BME280;2783;48.730;8.006;2022-12-07T10:52:36;100269.03;;;7.34;94.85
5522;BME280;2783;48.730;8.006;2022-12-07T11:00:30;100263.78;;;7.31;92.20
5522;BME280;2783;48.730;8.006;2022-12-07T11:06:09;100257.50;;;7.39;91.41
5522;BME280;2783;48.730;8.006;2022-12-07T11:17:07;100244.88;;;7.53;91.48
5522;BME280;2783;48.730;8.006;2022-12-07T11:22:51;100246.66;;;7.54;91.09
5522;BME280;2783;48.730;8.006;2022-12-07T11:25:36;100231.72;;;7.50;90.77
5522;BME280;2783;48.730;8.006;2022-12-07T11:28:29;100231.78;;;7.47;90.37
5522;BME280;2783;48.730;8.006;2022-12-07T11:34:02;100221.22;;;7.46;89.98
5522;BME280;2783;48.730;8.006;2022-12-07T11:36:38;100219.50;;;7.42;89.66
5522;BME280;2783;48.730;8.006;2022-12-07T11:39:30;100211.72;;;7.34;89.00
5522;BME280;2783;48.730;8.006;2022-12-07T11:42:06;100218.84;;;7.29;89.32
5522;BME280;2783;48.730;8.006;2022-12-07T11:44:55;100210.00;;;7.30;89.07
5522;BME280;2783;48.730;8.006;2022-12-07T11:47:34;100210.69;;;7.41;89.84
5522;BME280;2783;48.730;8.006;2022-12-07T12:01:18;100202.78;;;7.40;89.88
5522;BME280;2783;48.730;8.006;2022-12-07T12:03:52;100200.19;;;7.37;89.62
5522;BME280;2783;48.730;8.006;2022-12-07T12:06:19;100209.06;;;7.34;89.73
5522;BME280;2783;48.730;8.006;2022-12-07T12:09:01;100198.38;;;7.40;90.30
5522;BME280;2783;48.730;8.006;2022-12-07T12:22:34;100185.03;;;7.46;91.44
5522;BME280;2783;48.730;8.006;2022-12-07T12:25:05;100188.53;;;7.48;91.88
5522;BME280;2783;48.730;8.006;2022-12-07T12:27:34;100179.84;;;7.40;91.72
5522;BME280;2783;48.730;8.006;2022-12-07T12:30:34;100186.78;;;7.47;91.97
5522;BME280;2783;48.730;8.006;2022-12-07T12:33:20;100186.75;;;7.49;91.26
5522;BME280;2783;48.730;8.006;2022-12-07T12:51:49;100165.56;;;7.50;92.16
5522;BME280;2783;48.730;8.006;2022-12-07T12:59:23;100161.41;;;7.36;94.18
5522;BME280;2783;48.730;8.006;2022-12-07T13:01:55;100159.66;;;7.36;94.54
5522;BME280;2783;48.730;8.006;2022-12-07T13:04:34;100152.72;;;7.28;94.85
5522;BME280;2783;48.730;8.006;2022-12-07T13:07:01;100157.03;;;7.33;94.94
5522;BME280;2783;48.730;8.006;2022-12-07T13:09:33;100155.28;;;7.32;94.94
5522;BME280;2783;48.730;8.006;2022-12-07T13:12:05;100157.94;;;7.32;94.78
5522;BME280;2783;48.730;8.006;2022-12-07T13:17:03;100148.97;;;7.41;95.44
5522;BME280;2783;48.730;8.006;2022-12-07T13:25:10;100142.84;;;7.37;95.38
5522;BME280;2783;48.730;8.006;2022-12-07T13:27:41;100140.19;;;7.39;95.20
5522;BME280;2783;48.730;8.006;2022-12-07T13:30:14;100133.13;;;7.39;95.14
5522;BME280;2783;48.730;8.006;2022-12-07T13:32:40;100133.06;;;7.42;95.64
5522;BME280;2783;48.730;8.006;2022-12-07T13:37:53;100130.28;;;7.48;95.68
5522;BME280;2783;48.730;8.006;2022-12-07T13:40:21;100134.75;;;7.46;95.43
5522;BME280;2783;48.730;8.006;2022-12-07T13:42:47;100128.63;;;7.44;95.65
5522;BME280;2783;48.730;8.006;2022-12-07T13:45:26;100126.81;;;7.46;95.83
5522;BME280;2783;48.730;8.006;2022-12-07T13:48:33;100123.28;;;7.47;96.05
5522;BME280;2783;48.730;8.006;2022-12-07T13:51:02;100133.81;;;7.49;95.45
5522;BME280;2783;48.730;8.006;2022-12-07T13:53:28;100125.91;;;7.47;95.89
5522;BME280;2783;48.730;8.006;2022-12-07T13:55:56;100129.44;;;7.48;96.03
5522;BME280;2783;48.730;8.006;2022-12-07T13:58:24;100122.41;;;7.45;95.91
5522;BME280;2783;48.730;8.006;2022-12-07T14:00:49;100125.97;;;7.44;96.11
5522;BME280;2783;48.730;8.006;2022-12-07T14:05:42;100130.50;;;7.38;95.81
5522;BME280;2783;48.730;8.006;2022-12-07T14:10:39;100125.19;;;7.39;95.71
5522;BME280;2783;48.730;8.006;2022-12-07T14:15:52;100123.41;;;7.38;95.69
5522;BME280;2783;48.730;8.006;2022-12-07T14:18:27;100121.63;;;7.40;95.67
5522;BME280;2783;48.730;8.006;2022-12-07T14:21:15;100119.06;;;7.36;95.23
5522;BME280;2783;48.730;8.006;2022-12-07T14:23:41;100127.78;;;7.42;95.39
5522;BME280;2783;48.730;8.006;2022-12-07T14:26:19;100125.13;;;7.42;95.43
5522;BME280;2783;48.730;8.006;2022-12-07T14:28:45;100135.69;;;7.44;95.01
5522;BME280;2783;48.730;8.006;2022-12-07T14:31:13;100120.78;;;7.38;94.75
5522;BME280;2783;48.730;8.006;2022-12-07T14:33:39;100131.31;;;7.43;95.17
5522;BME280;2783;48.730;8.006;2022-12-07T14:36:05;100120.78;;;7.38;94.75
5522;BME280;2783;48.730;8.006;2022-12-07T14:38:31;100127.00;;;7.36;95.15
5522;BME280;2783;48.730;8.006;2022-12-07T14:40:56;100122.59;;;7.35;94.71
5522;BME280;2783;48.730;8.006;2022-12-07T14:43:42;100122.69;;;7.30;94.43
5522;BME280;2783;48.730;8.006;2022-12-07T14:46:09;100125.34;;;7.30;94.80
5522;BME280;2783;48.730;8.006;2022-12-07T14:48:34;100123.53;;;7.32;95.42
5522;BME280;2783;48.730;8.006;2022-12-07T14:51:00;100123.53;;;7.32;94.97
5522;BME280;2783;48.730;8.006;2022-12-07T14:53:30;100132.41;;;7.28;95.02
5522;BME280;2783;48.730;8.006;2022-12-07T14:55:58;100128.97;;;7.26;95.04
5522;BME280;2783;48.730;8.006;2022-12-07T14:58:24;100134.28;;;7.25;95.43
5522;BME280;2783;48.730;8.006;2022-12-07T15:00:49;100122.91;;;7.20;95.56
5522;BME280;2783;48.730;8.006;2022-12-07T15:03:14;100095.81;;;7.04;94.96
5522;BME280;2783;48.730;8.006;2022-12-07T15:05:40;100136.91;;;7.25;95.78
5522;BME280;2783;48.730;8.006;2022-12-07T15:08:06;100132.53;;;7.22;96.20
5522;BME280;2783;48.730;8.006;2022-12-07T15:10:33;100116.81;;;7.15;95.96
5522;BME280;2783;48.730;8.006;2022-12-07T15:13:00;100124.75;;;7.15;95.80
5522;BME280;2783;48.730;8.006;2022-12-07T15:15:44;100125.59;;;7.15;96.37
5522;BME280;2783;48.730;8.006;2022-12-07T15:18:09;100125.63;;;7.14;95.98
5522;BME280;2783;48.730;8.006;2022-12-07T15:20:35;100119.53;;;7.09;96.19
5522;BME280;2783;48.730;8.006;2022-12-07T15:23:00;100125.78;;;7.06;96.26
5522;BME280;2783;48.730;8.006;2022-12-07T15:25:26;100120.53;;;7.03;96.97